createdAt,value
2018-11-10T00:00:56.083Z,0.00
2018-11-10T00:01:56.108Z,0.00
2018-11-10T00:02:56.120Z,0.00
2018-11-10T00:03:56.144Z,0.00
2018-11-10T00:04:56.162Z,0.00
2018-11-10T00:05:56.180Z,0.00
2018-11-10T00:06:56.201Z,0.00
2018-11-10T00:07:56.256Z,0.00
2018-11-10T00:08:56.240Z,0.00
2018-11-10T00:09:56.261Z,0.00
2018-11-10T00:10:56.283Z,0.00
2018-11-10T00:11:56.299Z,0.00
2018-11-10T00:12:56.354Z,0.00
2018-11-10T00:13:56.381Z,0.00
2018-11-10T00:14:56.357Z,0.00
2018-11-10T00:15:56.378Z,0.00
2018-11-10T00:16:56.389Z,0.00
2018-11-10T00:17:56.435Z,0.00
2018-11-10T00:18:56.430Z,0.00
2018-11-10T00:19:56.458Z,0.00
2018-11-10T00:20:56.480Z,0.00
2018-11-10T00:21:56.489Z,0.00
2018-11-10T00:22:56.519Z,0.00
2018-11-10T00:23:56.532Z,0.00
2018-11-10T00:24:56.546Z,0.00
2018-11-10T00:25:56.564Z,0.00
2018-11-10T00:26:56.587Z,0.00
2018-11-10T00:27:56.631Z,0.00
2018-11-10T00:28:56.619Z,0.00
2018-11-10T00:29:56.639Z,0.00
2018-11-10T00:30:56.658Z,0.00
2018-11-10T00:31:56.685Z,0.00
2018-11-10T00:32:56.704Z,0.00
2018-11-10T00:33:56.724Z,0.00
2018-11-10T00:34:56.744Z,0.00
2018-11-10T00:35:56.782Z,0.00
2018-11-10T00:36:56.774Z,0.00
2018-11-10T00:37:56.808Z,0.00
2018-11-10T00:38:56.830Z,0.00
2018-11-10T00:39:56.842Z,0.00
2018-11-10T00:40:56.859Z,0.00
2018-11-10T00:41:56.910Z,0.00
2018-11-10T00:42:56.898Z,0.00
2018-11-10T00:43:56.913Z,0.00
2018-11-10T00:44:56.929Z,0.00
2018-11-10T00:45:56.955Z,0.00
2018-11-10T00:46:56.973Z,0.00
2018-11-10T00:47:57.013Z,0.00
2018-11-10T00:48:57.015Z,0.00
2018-11-10T00:49:57.025Z,0.00
2018-11-10T00:50:57.078Z,0.00
2018-11-10T00:51:57.070Z,0.00
2018-11-10T00:52:57.104Z,0.00
2018-11-10T00:53:57.113Z,0.00
2018-11-10T00:54:57.131Z,0.00
2018-11-10T00:55:57.143Z,0.00
2018-11-10T00:56:57.201Z,0.00
2018-11-10T00:57:57.180Z,0.00
2018-11-10T00:58:57.218Z,0.00
2018-11-10T00:59:57.216Z,0.00
2018-11-10T01:00:57.299Z,0.00
2018-11-10T01:01:57.299Z,0.00
2018-11-10T01:02:57.296Z,0.00
2018-11-10T01:03:57.294Z,0.00
2018-11-10T01:04:57.318Z,0.00
2018-11-10T01:05:57.339Z,0.00
2018-11-10T01:06:57.361Z,0.00
2018-11-10T01:07:57.375Z,0.00
2018-11-10T01:08:57.395Z,0.00
2018-11-10T01:09:57.417Z,0.00
2018-11-10T01:10:57.430Z,0.00
2018-11-10T01:11:57.459Z,0.00
2018-11-10T01:12:57.510Z,0.00
2018-11-10T01:13:57.496Z,0.00
2018-11-10T01:14:57.510Z,0.00
2018-11-10T01:15:57.531Z,0.00
2018-11-10T01:16:57.545Z,0.00
2018-11-10T01:17:57.564Z,0.00
2018-11-10T01:18:57.587Z,0.00
2018-11-10T01:19:57.614Z,0.00
2018-11-10T01:20:57.636Z,0.00
2018-11-10T01:21:57.662Z,0.00
2018-11-10T01:22:57.659Z,0.00
2018-11-10T01:23:57.682Z,0.00
2018-11-10T01:24:57.708Z,0.00
2018-11-10T01:25:57.717Z,0.00
2018-11-10T01:26:57.746Z,0.00
2018-11-10T01:27:57.873Z,0.00
2018-11-10T01:28:57.774Z,0.00
2018-11-10T01:29:57.795Z,0.00
2018-11-10T01:30:57.825Z,0.00
2018-11-10T01:31:57.838Z,0.00
2018-11-10T01:32:57.868Z,0.00
2018-11-10T01:33:57.951Z,0.00
2018-11-10T01:34:57.893Z,0.00
2018-11-10T01:35:57.912Z,0.00
2018-11-10T01:36:57.925Z,0.00
2018-11-10T01:37:57.959Z,0.00
2018-11-10T01:38:57.977Z,0.00
2018-11-10T01:39:57.991Z,0.00
2018-11-10T01:40:58.009Z,0.00
2018-11-10T01:41:58.023Z,0.00
2018-11-10T01:42:58.043Z,0.00
2018-11-10T01:43:58.063Z,0.00
2018-11-10T01:44:58.079Z,0.00
2018-11-10T01:45:58.098Z,0.00
2018-11-10T01:46:58.120Z,0.00
2018-11-10T01:47:58.134Z,0.00
2018-11-10T01:48:58.156Z,0.00
2018-11-10T01:49:58.174Z,0.00
2018-11-10T01:50:58.190Z,0.00
2018-11-10T01:51:58.217Z,0.00
2018-11-10T01:52:58.233Z,0.00
2018-11-10T01:53:58.256Z,0.00
2018-11-10T01:54:58.296Z,0.00
2018-11-10T01:55:58.303Z,0.00
2018-11-10T01:56:58.308Z,0.00
2018-11-10T01:57:58.330Z,0.00
2018-11-10T01:58:58.354Z,0.00
2018-11-10T01:59:58.364Z,0.00
2018-11-10T02:00:58.379Z,0.00
2018-11-10T02:01:58.401Z,0.00
2018-11-10T02:02:58.422Z,0.00
2018-11-10T02:03:58.443Z,0.00
2018-11-10T02:04:58.461Z,0.00
2018-11-10T02:05:58.476Z,0.00
2018-11-10T02:06:58.545Z,0.00
2018-11-10T02:07:58.513Z,0.00
2018-11-10T02:08:58.540Z,0.00
2018-11-10T02:09:58.556Z,0.00
2018-11-10T02:10:58.571Z,0.00
2018-11-10T02:11:58.592Z,0.00
2018-11-10T02:12:58.603Z,0.00
2018-11-10T02:13:58.628Z,0.00
2018-11-10T02:14:58.649Z,0.00
2018-11-10T02:15:58.665Z,0.00
2018-11-10T02:16:58.761Z,0.00
2018-11-10T02:17:58.707Z,0.00
2018-11-10T02:18:58.732Z,0.00
2018-11-10T02:19:58.751Z,0.00
2018-11-10T02:20:58.780Z,0.00
2018-11-10T02:21:58.775Z,0.00
2018-11-10T02:22:58.797Z,0.00
2018-11-10T02:23:58.823Z,0.00
2018-11-10T02:24:58.839Z,0.00
2018-11-10T02:25:58.858Z,0.00
2018-11-10T02:26:58.923Z,0.00
2018-11-10T02:27:58.887Z,0.00
2018-11-10T02:28:58.911Z,0.00
2018-11-10T02:29:58.925Z,0.00
2018-11-10T02:30:58.957Z,0.00
2018-11-10T02:31:58.978Z,0.00
2018-11-10T02:32:58.982Z,0.00
2018-11-10T02:33:59.002Z,0.00
2018-11-10T02:34:59.023Z,0.00
2018-11-10T02:35:59.040Z,0.00
2018-11-10T02:36:59.077Z,0.00
2018-11-10T02:37:59.090Z,0.00
2018-11-10T02:38:59.113Z,0.00
2018-11-10T02:39:59.142Z,0.00
2018-11-10T02:40:59.142Z,0.00
2018-11-10T02:41:59.149Z,0.00
2018-11-10T02:42:59.173Z,0.00
2018-11-10T02:43:59.198Z,0.00
2018-11-10T02:44:59.212Z,0.00
2018-11-10T02:45:59.233Z,0.00
2018-11-10T02:46:59.248Z,0.00
2018-11-10T02:47:59.265Z,0.00
2018-11-10T02:48:59.284Z,0.00
2018-11-10T02:49:59.309Z,0.00
2018-11-10T02:50:59.330Z,0.00
2018-11-10T02:51:59.340Z,0.00
2018-11-10T02:52:59.365Z,0.00
2018-11-10T02:53:59.461Z,0.00
2018-11-10T02:54:59.408Z,0.00
2018-11-10T02:55:59.438Z,0.00
2018-11-10T02:56:59.437Z,0.00
2018-11-10T02:57:59.465Z,0.00
2018-11-10T02:58:59.476Z,0.00
2018-11-10T02:59:59.508Z,0.00
2018-11-10T03:00:59.510Z,0.00
2018-11-10T03:01:59.533Z,0.00
2018-11-10T03:02:59.549Z,0.00
2018-11-10T03:03:59.571Z,0.00
2018-11-10T03:04:59.607Z,0.00
2018-11-10T03:05:59.608Z,0.00
2018-11-10T03:06:59.629Z,0.00
2018-11-10T03:07:59.647Z,0.00
2018-11-10T03:08:59.664Z,0.00
2018-11-10T03:09:59.691Z,0.00
2018-11-10T03:10:59.706Z,0.00
2018-11-10T03:11:59.730Z,0.00
2018-11-10T03:12:59.743Z,0.00
2018-11-10T03:13:59.769Z,0.00
2018-11-10T03:14:59.783Z,0.00
2018-11-10T03:15:59.805Z,0.00
2018-11-10T03:16:59.815Z,0.00
2018-11-10T03:17:59.833Z,0.00
2018-11-10T03:18:59.872Z,0.00
2018-11-10T03:19:59.882Z,0.00
2018-11-10T03:20:59.918Z,0.00
2018-11-10T03:21:59.907Z,0.00
2018-11-10T03:23:00.071Z,0.00
2018-11-10T03:23:59.979Z,0.00
2018-11-10T03:24:59.964Z,0.00
2018-11-10T03:26:00.017Z,0.00
2018-11-10T03:27:00.006Z,0.00
2018-11-10T03:28:00.033Z,0.00
2018-11-10T03:29:00.042Z,0.00
2018-11-10T03:30:00.069Z,0.00
2018-11-10T03:31:00.104Z,0.00
2018-11-10T03:32:00.099Z,0.00
2018-11-10T03:33:00.159Z,0.00
2018-11-10T03:34:00.142Z,0.00
2018-11-10T03:35:00.155Z,0.00
2018-11-10T03:36:00.183Z,0.00
2018-11-10T03:37:00.202Z,0.00
2018-11-10T03:38:00.222Z,0.00
2018-11-10T03:39:00.235Z,0.00
2018-11-10T03:40:00.257Z,0.00
2018-11-10T03:41:00.288Z,0.00
2018-11-10T03:42:00.311Z,0.00
2018-11-10T03:43:00.335Z,0.00
2018-11-10T03:44:00.328Z,0.00
2018-11-10T03:45:00.358Z,0.00
2018-11-10T03:46:00.383Z,0.00
2018-11-10T03:47:00.383Z,0.00
2018-11-10T03:48:00.407Z,0.00
2018-11-10T03:49:00.421Z,0.00
2018-11-10T03:50:00.446Z,0.00
2018-11-10T03:51:00.466Z,0.00
2018-11-10T03:52:00.484Z,0.00
2018-11-10T03:53:00.513Z,0.00
2018-11-10T03:54:00.523Z,0.00
2018-11-10T03:55:00.543Z,0.00
2018-11-10T03:56:00.587Z,0.00
2018-11-10T03:57:00.576Z,0.00
2018-11-10T03:58:00.596Z,0.00
2018-11-10T03:59:00.614Z,0.00
2018-11-10T04:00:00.634Z,0.00
2018-11-10T04:01:00.650Z,0.00
2018-11-10T04:02:00.674Z,0.00
2018-11-10T04:03:00.703Z,0.00
2018-11-10T04:04:00.726Z,0.00
2018-11-10T04:05:00.738Z,0.00
2018-11-10T04:06:00.763Z,0.00
2018-11-10T04:07:00.770Z,0.00
2018-11-10T04:08:00.789Z,0.00
2018-11-10T04:09:00.813Z,0.00
2018-11-10T04:10:00.819Z,0.00
2018-11-10T04:11:00.843Z,0.00
2018-11-10T04:12:00.868Z,0.00
2018-11-10T04:13:00.914Z,0.00
2018-11-10T04:14:00.899Z,0.00
2018-11-10T04:15:00.924Z,0.00
2018-11-10T04:16:00.945Z,0.00
2018-11-10T04:17:00.960Z,0.00
2018-11-10T04:18:00.975Z,0.00
2018-11-10T04:19:01.001Z,0.00
2018-11-10T04:20:01.014Z,0.00
2018-11-10T04:21:01.056Z,0.00
2018-11-10T04:22:01.051Z,0.00
2018-11-10T04:23:01.073Z,0.00
2018-11-10T04:24:01.095Z,0.00
2018-11-10T04:25:01.104Z,0.00
2018-11-10T04:26:01.124Z,0.00
2018-11-10T04:27:01.150Z,0.00
2018-11-10T04:28:01.165Z,0.00
2018-11-10T04:29:01.208Z,0.00
2018-11-10T04:30:01.200Z,0.00
2018-11-10T04:31:01.238Z,0.00
2018-11-10T04:32:01.247Z,0.00
2018-11-10T04:33:01.260Z,0.00
2018-11-10T04:34:01.274Z,0.00
2018-11-10T04:35:01.300Z,0.00
2018-11-10T04:36:01.332Z,0.00
2018-11-10T04:37:01.343Z,0.00
2018-11-10T04:38:01.354Z,0.00
2018-11-10T04:39:01.378Z,0.00
2018-11-10T04:40:01.395Z,0.00
2018-11-10T04:41:01.425Z,0.00
2018-11-10T04:42:01.434Z,0.00
2018-11-10T04:43:01.449Z,0.00
2018-11-10T04:44:01.486Z,0.00
2018-11-10T04:45:01.496Z,0.00
2018-11-10T04:46:01.507Z,0.00
2018-11-10T04:47:01.526Z,0.00
2018-11-10T04:48:01.549Z,0.00
2018-11-10T04:49:01.569Z,0.00
2018-11-10T04:50:01.596Z,0.00
2018-11-10T04:51:01.608Z,0.00
2018-11-10T04:52:01.640Z,0.00
2018-11-10T04:53:01.648Z,0.00
2018-11-10T04:54:01.662Z,0.00
2018-11-10T04:55:01.695Z,0.00
2018-11-10T04:56:01.719Z,0.00
2018-11-10T04:57:01.729Z,0.00
2018-11-10T04:58:01.743Z,0.00
2018-11-10T04:59:01.756Z,0.00
2018-11-10T05:00:01.779Z,0.00
2018-11-10T05:01:01.806Z,0.00
2018-11-10T05:02:01.822Z,0.00
2018-11-10T05:03:01.862Z,0.00
2018-11-10T05:04:01.853Z,0.00
2018-11-10T05:05:01.870Z,0.00
2018-11-10T05:06:01.897Z,0.00
2018-11-10T05:07:01.914Z,0.00
2018-11-10T05:08:01.934Z,0.00
2018-11-10T05:09:01.952Z,0.00
2018-11-10T05:10:01.973Z,0.00
2018-11-10T05:11:01.992Z,0.00
2018-11-10T05:12:02.006Z,0.00
2018-11-10T05:13:02.031Z,0.00
2018-11-10T05:14:02.057Z,0.00
2018-11-10T05:15:02.081Z,0.00
2018-11-10T05:16:02.085Z,0.00
2018-11-10T05:17:02.100Z,0.00
2018-11-10T05:18:02.118Z,0.00
2018-11-10T05:19:02.146Z,0.00
2018-11-10T05:20:02.155Z,0.00
2018-11-10T05:21:02.195Z,0.00
2018-11-10T05:22:02.196Z,0.00
2018-11-10T05:23:02.220Z,0.00
2018-11-10T05:24:02.235Z,0.00
2018-11-10T05:25:02.258Z,0.00
2018-11-10T05:26:02.295Z,0.00
2018-11-10T05:27:02.310Z,0.00
2018-11-10T05:28:02.314Z,0.00
2018-11-10T05:29:02.329Z,0.00
2018-11-10T05:30:02.353Z,0.00
2018-11-10T05:31:02.409Z,0.00
2018-11-10T05:32:02.383Z,0.00
2018-11-10T05:33:02.400Z,0.00
2018-11-10T05:34:02.425Z,0.00
2018-11-10T05:35:02.457Z,0.00
2018-11-10T05:36:02.470Z,0.00
2018-11-10T05:37:02.488Z,0.00
2018-11-10T05:38:02.501Z,0.00
2018-11-10T05:39:02.526Z,0.00
2018-11-10T05:40:02.567Z,0.00
2018-11-10T05:41:02.561Z,0.00
2018-11-10T05:42:02.576Z,0.00
2018-11-10T05:43:02.600Z,0.00
2018-11-10T05:44:02.615Z,0.00
2018-11-10T05:45:02.648Z,0.00
2018-11-10T05:46:02.651Z,0.00
2018-11-10T05:47:02.673Z,0.00
2018-11-10T05:48:02.707Z,0.00
2018-11-10T05:49:02.718Z,0.00
2018-11-10T05:50:02.731Z,0.00
2018-11-10T05:51:02.751Z,0.00
2018-11-10T05:52:02.769Z,0.00
2018-11-10T05:53:02.794Z,0.00
2018-11-10T05:54:02.811Z,0.00
2018-11-10T05:55:02.827Z,0.00
2018-11-10T05:56:02.853Z,0.00
2018-11-10T05:57:02.907Z,0.00
2018-11-10T05:58:02.907Z,0.00
2018-11-10T05:59:02.905Z,0.00
2018-11-10T06:00:02.938Z,0.00
2018-11-10T06:01:02.959Z,0.00
2018-11-10T06:02:02.962Z,0.00
2018-11-10T06:03:03.007Z,0.00
2018-11-10T06:04:03.002Z,0.00
2018-11-10T06:05:03.023Z,0.00
2018-11-10T06:06:03.043Z,0.00
2018-11-10T06:07:03.061Z,0.00
2018-11-10T06:08:03.091Z,0.00
2018-11-10T06:09:03.121Z,0.00
2018-11-10T06:10:03.289Z,0.00
2018-11-10T06:11:03.139Z,0.00
2018-11-10T06:12:03.156Z,0.00
2018-11-10T06:13:03.181Z,0.00
2018-11-10T06:14:03.188Z,0.00
2018-11-10T06:15:03.219Z,0.00
2018-11-10T06:16:03.255Z,0.00
2018-11-10T06:17:03.255Z,0.00
2018-11-10T06:18:03.284Z,0.00
2018-11-10T06:19:03.290Z,0.00
2018-11-10T06:20:03.312Z,0.00
2018-11-10T06:21:04.078Z,5.63
2018-11-10T06:22:03.350Z,5.63
2018-11-10T06:23:03.371Z,5.63
2018-11-10T06:24:03.386Z,5.63
2018-11-10T06:25:03.413Z,5.63
2018-11-10T06:26:03.497Z,5.63
2018-11-10T06:27:03.448Z,5.63
2018-11-10T06:28:03.459Z,5.63
2018-11-10T06:29:03.508Z,5.63
2018-11-10T06:30:03.511Z,5.63
2018-11-10T06:31:03.539Z,5.63
2018-11-10T06:32:03.553Z,5.63
2018-11-10T06:33:03.620Z,11.25
2018-11-10T06:34:03.596Z,11.25
2018-11-10T06:35:03.591Z,11.25
2018-11-10T06:36:03.841Z,11.25
2018-11-10T06:37:03.634Z,11.25
2018-11-10T06:38:03.651Z,11.25
2018-11-10T06:39:03.688Z,11.25
2018-11-10T06:40:03.710Z,11.25
2018-11-10T06:41:03.719Z,11.25
2018-11-10T06:42:03.739Z,11.25
2018-11-10T06:43:03.750Z,11.25
2018-11-10T06:44:03.791Z,11.25
2018-11-10T06:45:03.868Z,16.88
2018-11-10T06:46:03.818Z,16.88
2018-11-10T06:47:03.874Z,16.88
2018-11-10T06:48:03.847Z,16.88
2018-11-10T06:49:04.026Z,16.88
2018-11-10T06:50:03.879Z,22.50
2018-11-10T06:51:03.915Z,22.50
2018-11-10T06:52:03.958Z,22.50
2018-11-10T06:53:04.021Z,28.13
2018-11-10T06:54:03.958Z,28.13
2018-11-10T06:55:03.978Z,33.75
2018-11-10T06:56:04.005Z,39.38
2018-11-10T06:57:04.042Z,39.38
2018-11-10T06:58:04.050Z,39.38
2018-11-10T06:59:04.057Z,45.00
2018-11-10T07:00:04.079Z,45.00
2018-11-10T07:01:04.088Z,39.38
2018-11-10T07:02:04.120Z,39.38
2018-11-10T07:03:04.143Z,39.38
2018-11-10T07:04:04.177Z,39.38
2018-11-10T07:05:04.166Z,39.38
2018-11-10T07:06:04.215Z,39.38
2018-11-10T07:07:04.210Z,45.00
2018-11-10T07:08:04.222Z,45.00
2018-11-10T07:09:04.243Z,45.00
2018-11-10T07:10:04.257Z,45.00
2018-11-10T07:11:04.284Z,45.00
2018-11-10T07:12:04.303Z,45.00
2018-11-10T07:13:04.320Z,45.00
2018-11-10T07:14:04.340Z,45.00
2018-11-10T07:15:04.363Z,45.00
2018-11-10T07:16:04.371Z,50.63
2018-11-10T07:17:04.401Z,50.63
2018-11-10T07:18:04.510Z,56.25
2018-11-10T07:19:04.428Z,56.25
2018-11-10T07:20:04.461Z,61.88
2018-11-10T07:21:04.493Z,61.88
2018-11-10T07:22:04.505Z,67.50
2018-11-10T07:23:04.532Z,67.50
2018-11-10T07:24:04.539Z,61.88
2018-11-10T07:25:04.635Z,61.88
2018-11-10T07:26:04.572Z,61.88
2018-11-10T07:27:04.614Z,61.88
2018-11-10T07:28:04.615Z,61.88
2018-11-10T07:29:04.622Z,61.88
2018-11-10T07:30:04.666Z,61.88
2018-11-10T07:31:04.668Z,61.88
2018-11-10T07:32:04.758Z,56.25
2018-11-10T07:33:04.704Z,56.25
2018-11-10T07:34:04.719Z,56.25
2018-11-10T07:35:04.744Z,56.25
2018-11-10T07:36:04.757Z,56.25
2018-11-10T07:37:04.779Z,56.25
2018-11-10T07:38:04.800Z,56.25
2018-11-10T07:39:04.820Z,56.25
2018-11-10T07:40:04.854Z,56.25
2018-11-10T07:41:04.866Z,56.25
2018-11-10T07:42:04.878Z,56.25
2018-11-10T07:43:04.920Z,61.88
2018-11-10T07:44:04.912Z,61.88
2018-11-10T07:45:04.945Z,67.50
2018-11-10T07:46:04.946Z,67.50
2018-11-10T07:47:04.969Z,67.50
2018-11-10T07:48:04.988Z,73.13
2018-11-10T07:49:05.075Z,78.75
2018-11-10T07:50:05.028Z,78.75
2018-11-10T07:51:05.114Z,78.75
2018-11-10T07:52:05.070Z,78.75
2018-11-10T07:53:05.095Z,73.13
2018-11-10T07:54:05.111Z,67.50
2018-11-10T07:55:05.121Z,67.50
2018-11-10T07:56:05.194Z,67.50
2018-11-10T07:57:05.165Z,67.50
2018-11-10T07:58:05.192Z,67.50
2018-11-10T07:59:05.205Z,67.50
2018-11-10T08:00:05.220Z,67.50
2018-11-10T08:01:05.241Z,61.88
2018-11-10T08:02:05.271Z,61.88
2018-11-10T08:03:05.296Z,67.50
2018-11-10T08:04:05.301Z,67.50
2018-11-10T08:05:05.321Z,61.88
2018-11-10T08:06:05.334Z,56.25
2018-11-10T08:07:05.352Z,50.63
2018-11-10T08:08:05.376Z,45.00
2018-11-10T08:09:05.411Z,45.00
2018-11-10T08:10:05.415Z,45.00
2018-11-10T08:11:05.428Z,45.00
2018-11-10T08:12:05.449Z,45.00
2018-11-10T08:13:05.471Z,45.00
2018-11-10T08:14:05.490Z,45.00
2018-11-10T08:15:05.527Z,45.00
2018-11-10T08:16:05.569Z,45.00
2018-11-10T08:17:05.545Z,45.00
2018-11-10T08:18:05.566Z,45.00
2018-11-10T08:19:05.585Z,45.00
2018-11-10T08:20:05.601Z,45.00
2018-11-10T08:21:05.621Z,45.00
2018-11-10T08:22:05.644Z,45.00
2018-11-10T08:23:05.661Z,39.38
2018-11-10T08:24:05.692Z,45.00
2018-11-10T08:25:05.759Z,45.00
2018-11-10T08:26:05.786Z,50.63
2018-11-10T08:27:05.745Z,50.63
2018-11-10T08:28:05.753Z,56.25
2018-11-10T08:29:05.778Z,56.25
2018-11-10T08:30:05.809Z,50.63
2018-11-10T08:31:05.836Z,50.63
2018-11-10T08:32:05.851Z,45.00
2018-11-10T08:33:05.865Z,50.63
2018-11-10T08:34:05.899Z,50.63
2018-11-10T08:35:05.890Z,56.25
2018-11-10T08:36:05.915Z,61.88
2018-11-10T08:37:05.931Z,61.88
2018-11-10T08:38:05.945Z,61.88
2018-11-10T08:39:06.030Z,67.50
2018-11-10T08:40:05.993Z,61.88
2018-11-10T08:41:06.000Z,67.50
2018-11-10T08:42:06.025Z,67.50
2018-11-10T08:43:06.036Z,61.88
2018-11-10T08:44:06.061Z,67.50
2018-11-10T08:45:06.078Z,67.50
2018-11-10T08:46:06.100Z,67.50
2018-11-10T08:47:06.128Z,67.50
2018-11-10T08:48:06.142Z,67.50
2018-11-10T08:49:06.210Z,73.13
2018-11-10T08:50:06.170Z,73.13
2018-11-10T08:51:06.196Z,67.50
2018-11-10T08:52:06.215Z,61.88
2018-11-10T08:53:06.228Z,56.25
2018-11-10T08:54:06.248Z,50.63
2018-11-10T08:55:06.268Z,50.63
2018-11-10T08:56:06.299Z,45.00
2018-11-10T08:57:06.303Z,39.38
2018-11-10T08:58:06.325Z,45.00
2018-11-10T08:59:06.438Z,45.00
2018-11-10T09:00:06.370Z,45.00
2018-11-10T09:01:06.382Z,45.00
2018-11-10T09:02:06.404Z,56.25
2018-11-10T09:03:06.426Z,61.88
2018-11-10T09:04:06.439Z,67.50
2018-11-10T09:05:06.476Z,67.50
2018-11-10T09:06:06.479Z,73.13
2018-11-10T09:07:06.501Z,78.75
2018-11-10T09:08:06.521Z,78.75
2018-11-10T09:09:06.542Z,78.75
2018-11-10T09:10:06.560Z,78.75
2018-11-10T09:11:06.574Z,78.75
2018-11-10T09:12:06.595Z,84.38
2018-11-10T09:13:06.628Z,90.00
2018-11-10T09:14:06.636Z,95.63
2018-11-10T09:15:06.741Z,106.88
2018-11-10T09:16:06.675Z,118.13
2018-11-10T09:17:06.692Z,129.38
2018-11-10T09:18:06.711Z,129.38
2018-11-10T09:19:06.745Z,129.38
2018-11-10T09:20:06.755Z,129.38
2018-11-10T09:21:06.815Z,123.75
2018-11-10T09:22:06.796Z,118.13
2018-11-10T09:23:06.809Z,118.13
2018-11-10T09:24:06.829Z,118.13
2018-11-10T09:25:06.850Z,123.75
2018-11-10T09:26:06.868Z,129.38
2018-11-10T09:27:06.886Z,129.38
2018-11-10T09:28:06.904Z,135.00
2018-11-10T09:29:06.928Z,129.38
2018-11-10T09:30:06.940Z,129.38
2018-11-10T09:31:06.964Z,129.38
2018-11-10T09:32:06.996Z,129.38
2018-11-10T09:33:07.006Z,129.38
2018-11-10T09:34:07.021Z,129.38
2018-11-10T09:35:07.075Z,129.38
2018-11-10T09:36:07.062Z,135.00
2018-11-10T09:37:07.085Z,140.63
2018-11-10T09:38:07.105Z,146.25
2018-11-10T09:39:07.119Z,151.88
2018-11-10T09:40:07.138Z,157.50
2018-11-10T09:41:07.164Z,157.50
2018-11-10T09:42:07.239Z,151.88
2018-11-10T09:43:07.213Z,157.50
2018-11-10T09:44:07.216Z,157.50
2018-11-10T09:45:07.258Z,157.50
2018-11-10T09:46:07.261Z,151.88
2018-11-10T09:47:07.290Z,146.25
2018-11-10T09:48:07.301Z,146.25
2018-11-10T09:49:07.320Z,140.63
2018-11-10T09:50:07.341Z,135.00
2018-11-10T09:51:07.360Z,135.00
2018-11-10T09:52:07.381Z,129.38
2018-11-10T09:53:07.397Z,135.00
2018-11-10T09:54:07.424Z,135.00
2018-11-10T09:55:07.442Z,140.63
2018-11-10T09:56:07.480Z,140.63
2018-11-10T09:57:07.485Z,140.63
2018-11-10T09:58:07.502Z,140.63
2018-11-10T09:59:07.517Z,146.25
2018-11-10T10:00:07.540Z,157.50
2018-11-10T10:01:07.683Z,157.50
2018-11-10T10:02:07.869Z,157.50
2018-11-10T10:03:07.604Z,157.50
2018-11-10T10:04:07.621Z,157.50
2018-11-10T10:05:07.647Z,157.50
2018-11-10T10:06:07.658Z,151.88
2018-11-10T10:07:07.676Z,157.50
2018-11-10T10:08:07.702Z,151.88
2018-11-10T10:09:07.715Z,146.25
2018-11-10T10:10:07.736Z,146.25
2018-11-10T10:11:07.774Z,146.25
2018-11-10T10:12:07.777Z,146.25
2018-11-10T10:13:07.803Z,146.25
2018-11-10T10:14:07.815Z,146.25
2018-11-10T10:15:07.845Z,151.88
2018-11-10T10:16:07.879Z,151.88
2018-11-10T10:17:07.885Z,157.50
2018-11-10T10:18:07.895Z,163.13
2018-11-10T10:19:07.927Z,163.13
2018-11-10T10:20:07.941Z,163.13
2018-11-10T10:21:07.962Z,163.13
2018-11-10T10:22:07.996Z,163.13
2018-11-10T10:23:08.013Z,168.75
2018-11-10T10:24:08.037Z,174.38
2018-11-10T10:25:08.053Z,180.00
2018-11-10T10:26:08.110Z,185.63
2018-11-10T10:27:08.097Z,191.25
2018-11-10T10:28:08.128Z,196.88
2018-11-10T10:29:08.161Z,196.88
2018-11-10T10:30:08.142Z,202.50
2018-11-10T10:31:08.153Z,208.13
2018-11-10T10:32:08.190Z,202.50
2018-11-10T10:33:08.270Z,202.50
2018-11-10T10:34:08.253Z,202.50
2018-11-10T10:35:08.308Z,202.50
2018-11-10T10:36:08.259Z,196.88
2018-11-10T10:37:08.282Z,196.88
2018-11-10T10:38:08.305Z,191.25
2018-11-10T10:39:08.318Z,185.63
2018-11-10T10:40:08.351Z,185.63
2018-11-10T10:41:08.374Z,185.63
2018-11-10T10:42:08.381Z,185.63
2018-11-10T10:43:08.529Z,191.25
2018-11-10T10:44:08.421Z,196.88
2018-11-10T10:45:08.445Z,196.88
2018-11-10T10:46:08.460Z,191.25
2018-11-10T10:47:08.486Z,191.25
2018-11-10T10:48:08.510Z,191.25
2018-11-10T10:49:08.612Z,196.88
2018-11-10T10:50:08.545Z,208.13
2018-11-10T10:51:08.567Z,213.75
2018-11-10T10:52:08.583Z,225.00
2018-11-10T10:53:08.608Z,230.63
2018-11-10T10:54:08.631Z,230.63
2018-11-10T10:55:08.646Z,230.63
2018-11-10T10:56:08.796Z,230.63
2018-11-10T10:57:08.744Z,230.63
2018-11-10T10:58:08.725Z,230.63
2018-11-10T10:59:08.746Z,230.63
2018-11-10T11:00:08.762Z,236.25
2018-11-10T11:01:08.774Z,236.25
2018-11-10T11:02:08.802Z,236.25
2018-11-10T11:03:08.854Z,236.25
2018-11-10T11:04:08.843Z,241.88
2018-11-10T11:05:08.853Z,241.88
2018-11-10T11:06:08.875Z,247.50
2018-11-10T11:07:08.895Z,253.13
2018-11-10T11:08:08.946Z,253.13
2018-11-10T11:09:08.978Z,258.75
2018-11-10T11:10:08.973Z,264.38
2018-11-10T11:11:09.003Z,264.38
2018-11-10T11:12:09.023Z,264.38
2018-11-10T11:13:09.021Z,270.00
2018-11-10T11:14:09.047Z,270.00
2018-11-10T11:15:09.173Z,275.63
2018-11-10T11:16:09.083Z,275.63
2018-11-10T11:17:09.100Z,281.25
2018-11-10T11:18:09.139Z,281.25
2018-11-10T11:19:09.144Z,286.88
2018-11-10T11:20:09.177Z,286.88
2018-11-10T11:21:09.204Z,292.50
2018-11-10T11:22:09.216Z,292.50
2018-11-10T11:23:09.232Z,286.88
2018-11-10T11:24:09.253Z,281.25
2018-11-10T11:25:09.296Z,275.63
2018-11-10T11:26:09.333Z,275.63
2018-11-10T11:27:09.312Z,275.63
2018-11-10T11:28:09.340Z,270.00
2018-11-10T11:29:09.437Z,264.38
2018-11-10T11:30:09.376Z,258.75
2018-11-10T11:31:09.500Z,253.13
2018-11-10T11:32:09.425Z,241.88
2018-11-10T11:33:09.445Z,230.63
2018-11-10T11:34:09.473Z,219.38
2018-11-10T11:35:09.532Z,213.75
2018-11-10T11:36:09.510Z,208.13
2018-11-10T11:37:09.523Z,202.50
2018-11-10T11:38:09.544Z,202.50
2018-11-10T11:39:09.564Z,208.13
2018-11-10T11:40:09.610Z,213.75
2018-11-10T11:41:09.706Z,219.38
2018-11-10T11:42:09.630Z,219.38
2018-11-10T11:43:09.645Z,225.00
2018-11-10T11:44:09.668Z,230.63
2018-11-10T11:45:09.682Z,230.63
2018-11-10T11:46:09.711Z,230.63
2018-11-10T11:47:09.726Z,230.63
2018-11-10T11:48:09.751Z,219.38
2018-11-10T11:49:09.773Z,213.75
2018-11-10T11:50:09.795Z,208.13
2018-11-10T11:51:09.816Z,208.13
2018-11-10T11:52:09.839Z,202.50
2018-11-10T11:53:09.850Z,196.88
2018-11-10T11:54:09.903Z,196.88
2018-11-10T11:55:09.900Z,191.25
2018-11-10T11:56:09.915Z,191.25
2018-11-10T11:57:09.942Z,174.38
2018-11-10T11:58:10.225Z,168.75
2018-11-10T11:59:09.977Z,157.50
2018-11-10T12:00:10.010Z,151.88
2018-11-10T12:01:10.022Z,146.25
2018-11-10T12:02:10.114Z,140.63
2018-11-10T12:03:10.072Z,140.63
2018-11-10T12:04:10.094Z,135.00
2018-11-10T12:05:10.104Z,135.00
2018-11-10T12:06:10.137Z,135.00
2018-11-10T12:07:10.157Z,135.00
2018-11-10T12:08:10.169Z,129.38
2018-11-10T12:09:10.189Z,129.38
2018-11-10T12:10:10.226Z,129.38
2018-11-10T12:11:10.240Z,129.38
2018-11-10T12:12:10.257Z,129.38
2018-11-10T12:13:10.275Z,129.38
2018-11-10T12:14:10.294Z,129.38
2018-11-10T12:15:10.328Z,129.38
2018-11-10T12:16:10.336Z,135.00
2018-11-10T12:17:10.361Z,135.00
2018-11-10T12:18:10.379Z,135.00
2018-11-10T12:19:10.404Z,135.00
2018-11-10T12:20:10.424Z,135.00
2018-11-10T12:21:10.442Z,140.63
2018-11-10T12:22:10.576Z,140.63
2018-11-10T12:23:10.479Z,146.25
2018-11-10T12:24:10.505Z,151.88
2018-11-10T12:25:10.524Z,151.88
2018-11-10T12:26:10.543Z,151.88
2018-11-10T12:27:10.563Z,151.88
2018-11-10T12:28:10.582Z,151.88
2018-11-10T12:29:10.604Z,151.88
2018-11-10T12:30:10.630Z,151.88
2018-11-10T12:31:10.657Z,151.88
2018-11-10T12:32:10.670Z,151.88
2018-11-10T12:33:10.693Z,151.88
2018-11-10T12:34:10.713Z,151.88
2018-11-10T12:35:10.740Z,151.88
2018-11-10T12:36:10.755Z,151.88
2018-11-10T12:37:10.775Z,151.88
2018-11-10T12:38:10.801Z,151.88
2018-11-10T12:39:10.811Z,151.88
2018-11-10T12:40:10.845Z,151.88
2018-11-10T12:41:10.854Z,157.50
2018-11-10T12:42:10.877Z,157.50
2018-11-10T12:43:10.896Z,157.50
2018-11-10T12:44:10.916Z,157.50
2018-11-10T12:45:10.935Z,163.13
2018-11-10T12:46:10.972Z,163.13
2018-11-10T12:47:10.998Z,163.13
2018-11-10T12:48:11.001Z,157.50
2018-11-10T12:49:11.060Z,157.50
2018-11-10T12:50:11.050Z,157.50
2018-11-10T12:51:11.064Z,151.88
2018-11-10T12:52:11.148Z,151.88
2018-11-10T12:53:11.127Z,151.88
2018-11-10T12:54:11.131Z,151.88
2018-11-10T12:55:11.240Z,151.88
2018-11-10T12:56:11.171Z,146.25
2018-11-10T12:57:11.200Z,146.25
2018-11-10T12:58:11.216Z,146.25
2018-11-10T12:59:11.231Z,151.88